^^
B2 Weather Station Historical Data
Daily Summary for May 26, 2018 Units:  English    Metric   Both
Daily Weekly Monthly Yearly Custom
  High: Low: Average:
Temperature: 91.2 °F 66.7 °F 78.8 °F
Dew Point: 69.8 °F 62.6 °F 65.5 °F
Humidity: 94% 41% 67%
Wind Speed: 11.5mph 0.0mph 2.6mph
Wind Gust: 11.5mph - -
Wind- - West
Pressure: 29.78 in 29.70 in -
Precipitation: 0.00 in    
Historical Graphs
 
 
Tabular Data for May 26, 2018
Time Temperature Dew Point Pressure Wind Wind Speed Wind Gust Humidity Rainfall Rate (Hourly) solar
00:03 70.5 °F 66.8 °F 29.76 in Calm     88% 0.00 in 0.0 W/m2
00:08 70.3 °F 66.9 °F 29.76 in Calm     89% 0.00 in 0.0 W/m2
00:13 70.1 °F 66.7 °F 29.77 in Calm     89% 0.00 in 0.0 W/m2
00:18 70.0 °F 66.6 °F 29.76 in Calm     89% 0.00 in 0.0 W/m2
00:23 69.9 °F 66.2 °F 29.76 in Calm     88% 0.00 in 0.0 W/m2
00:28 69.8 °F 66.1 °F 29.76 in Calm     88% 0.00 in 0.0 W/m2
00:33 69.7 °F 66.0 °F 29.75 in Calm     88% 0.00 in 0.0 W/m2
00:38 69.6 °F 65.9 °F 29.75 in Calm     88% 0.00 in 0.0 W/m2
00:43 69.5 °F 65.5 °F 29.75 in Calm     87% 0.00 in 0.0 W/m2
00:48 69.4 °F 65.4 °F 29.76 in Calm     87% 0.00 in 0.0 W/m2
00:53 69.4 °F 65.4 °F 29.76 in Calm     87% 0.00 in 0.0 W/m2
00:58 69.4 °F 65.4 °F 29.75 in Calm     87% 0.00 in 0.0 W/m2
01:03 69.1 °F 64.7 °F 29.75 in Calm     86% 0.00 in 0.0 W/m2
01:08 68.8 °F 64.8 °F 29.75 in Calm     87% 0.00 in 0.0 W/m2
01:13 68.8 °F 65.1 °F 29.75 in Calm     88% 0.00 in 0.0 W/m2
01:18 68.6 °F 64.9 °F 29.74 in Calm     88% 0.00 in 0.0 W/m2
01:23 68.5 °F 64.8 °F 29.74 in Calm     88% 0.00 in 0.0 W/m2
01:28 68.2 °F 64.5 °F 29.74 in Calm     88% 0.00 in 0.0 W/m2
01:33 67.9 °F 64.2 °F 29.74 in Calm     88% 0.00 in 0.0 W/m2
01:38 67.5 °F 64.1 °F 29.74 in Calm     89% 0.00 in 0.0 W/m2
01:43 67.1 °F 63.7 °F 29.74 in Calm     89% 0.00 in 0.0 W/m2
01:48 67.0 °F 64.0 °F 29.74 in Calm     90% 0.00 in 0.0 W/m2
01:53 66.8 °F 63.8 °F 29.74 in Calm     90% 0.00 in 0.0 W/m2
01:58 66.7 °F 64.0 °F 29.74 in Calm     91% 0.00 in 0.0 W/m2
02:03 66.8 °F 64.4 °F 29.74 in Calm     92% 0.00 in 0.0 W/m2
02:08 67.0 °F 64.6 °F 29.74 in Calm     92% 0.00 in 0.0 W/m2
02:13 67.1 °F 64.7 °F 29.74 in Calm     92% 0.00 in 0.0 W/m2
02:18 67.1 °F 64.7 °F 29.74 in Calm     92% 0.00 in 0.0 W/m2
02:23 67.1 °F 64.7 °F 29.73 in Calm     92% 0.00 in 0.0 W/m2
02:28 67.2 °F 64.8 °F 29.74 in Calm     92% 0.00 in 0.0 W/m2
02:33 67.3 °F 64.9 °F 29.73 in Calm     92% 0.00 in 0.0 W/m2
02:38 67.2 °F 64.8 °F 29.74 in Calm     92% 0.00 in 0.0 W/m2
02:43 67.3 °F 64.9 °F 29.74 in Calm     92% 0.00 in 0.0 W/m2
02:48 67.3 °F 64.9 °F 29.74 in Calm     92% 0.00 in 0.0 W/m2
02:53 67.3 °F 64.9 °F 29.74 in Calm     92% 0.00 in 0.0 W/m2
02:58 67.4 °F 65.0 °F 29.74 in Calm     92% 0.00 in 0.0 W/m2
03:03 67.6 °F 65.2 °F 29.73 in Calm     92% 0.00 in 0.0 W/m2
03:08 67.9 °F 65.2 °F 29.74 in Calm     91% 0.00 in 0.0 W/m2
03:13 68.2 °F 65.5 °F 29.74 in WSW 3.5 mph 3.5 mph 91% 0.00 in 0.0 W/m2
03:18 68.5 °F 65.4 °F 29.74 in Calm     90% 0.00 in 0.0 W/m2
03:23 68.5 °F 65.4 °F 29.74 in SW 1.2 mph   90% 0.00 in 0.0 W/m2
03:28 68.5 °F 65.4 °F 29.74 in Calm     90% 0.00 in 0.0 W/m2
03:33 68.3 °F 65.3 °F 29.74 in Calm     90% 0.00 in 0.0 W/m2
03:38 68.3 °F 65.3 °F 29.74 in Calm     90% 0.00 in 0.0 W/m2
03:43 68.2 °F 65.2 °F 29.74 in Calm     90% 0.00 in 0.0 W/m2
03:45 68.2 °F 65.2 °F 29.75 in Calm     90% 0.00 in 0.0 W/m2
03:50 68.1 °F 65.1 °F 29.74 in Calm     90% 0.00 in 0.0 W/m2
03:55 68.0 °F 65.0 °F 29.74 in Calm     90% 0.00 in 0.0 W/m2
04:00 68.1 °F 65.4 °F 29.75 in Calm     91% 0.00 in 0.0 W/m2
04:05 68.1 °F 65.4 °F 29.75 in Calm     91% 0.00 in 0.0 W/m2
04:10 68.0 °F 65.3 °F 29.75 in Calm     91% 0.00 in 0.0 W/m2
04:15 68.0 °F 65.3 °F 29.75 in Calm     91% 0.00 in 0.0 W/m2
04:20 68.1 °F 65.7 °F 29.75 in Calm     92% 0.00 in 0.0 W/m2
04:25 68.1 °F 65.7 °F 29.74 in Calm     92% 0.00 in 0.0 W/m2
04:30 68.1 °F 65.7 °F 29.74 in WSW 1.2 mph   92% 0.00 in 0.0 W/m2
04:35 68.3 °F 65.9 °F 29.74 in WSW 3.5 mph 3.5 mph 92% 0.00 in 0.0 W/m2
04:40 68.4 °F 66.0 °F 29.74 in West 1.2 mph   92% 0.00 in 0.0 W/m2
04:41 68.4 °F 66.0 °F 29.74 in West 1.2 mph   92% 0.00 in 0.0 W/m2
04:46 68.5 °F 66.1 °F 29.74 in West 6.9 mph 6.9 mph 92% 0.00 in 0.0 W/m2
04:51 68.5 °F 66.1 °F 29.74 in West 3.5 mph 3.5 mph 92% 0.00 in 0.0 W/m2
04:56 68.5 °F 66.1 °F 29.74 in WSW 3.5 mph   92% 0.00 in 0.0 W/m2
05:01 68.5 °F 66.1 °F 29.74 in West 8.1 mph 8.1 mph 92% 0.00 in 0.0 W/m2
05:06 68.4 °F 66.0 °F 29.74 in WSW 8.1 mph 8.1 mph 92% 0.00 in 0.0 W/m2
05:11 68.3 °F 65.9 °F 29.73 in WSW 4.6 mph 4.6 mph 92% 0.00 in 0.0 W/m2
05:16 68.2 °F 65.8 °F 29.73 in West 5.8 mph 5.8 mph 92% 0.00 in 0.0 W/m2
05:21 68.1 °F 66.0 °F 29.74 in West 5.8 mph 5.8 mph 93% 0.00 in 0.0 W/m2
05:26 68.1 °F 66.0 °F 29.73 in West 6.9 mph 6.9 mph 93% 0.00 in 0.0 W/m2
05:31 68.0 °F 65.9 °F 29.73 in WSW 5.8 mph 5.8 mph 93% 0.00 in 0.0 W/m2
05:36 67.9 °F 65.8 °F 29.74 in West 1.2 mph   93% 0.00 in 5.0 W/m2
05:41 68.0 °F 65.9 °F 29.74 in West 3.5 mph 3.5 mph 93% 0.00 in 5.0 W/m2
05:46 68.0 °F 65.9 °F 29.74 in Calm     93% 0.00 in 7.0 W/m2
05:51 68.0 °F 65.9 °F 29.74 in WSW 4.0 mph 4.0 mph 93% 0.00 in 9.0 W/m2
05:56 67.9 °F 65.8 °F 29.74 in WSW 3.5 mph 3.5 mph 93% 0.00 in 11.0 W/m2
06:01 67.9 °F 66.1 °F 29.74 in WSW 3.5 mph 3.5 mph 94% 0.00 in 12.0 W/m2
06:06 67.9 °F 65.8 °F 29.74 in WSW 3.5 mph   93% 0.00 in 16.0 W/m2
06:11 67.9 °F 65.8 °F 29.75 in SW 4.0 mph 4.0 mph 93% 0.00 in 21.0 W/m2
06:16 68.0 °F 66.2 °F 29.75 in West 5.8 mph 5.8 mph 94% 0.00 in 28.0 W/m2
06:21 68.1 °F 66.3 °F 29.75 in WSW 3.5 mph 3.5 mph 94% 0.00 in 39.0 W/m2
06:26 68.1 °F 66.3 °F 29.75 in WSW 1.2 mph   94% 0.00 in 60.0 W/m2
06:31 68.3 °F 66.5 °F 29.75 in Calm     94% 0.00 in 88.0 W/m2
06:36 68.5 °F 66.7 °F 29.75 in WSW 2.3 mph 2.3 mph 94% 0.00 in 104.0 W/m2
06:41 68.8 °F 67.0 °F 29.75 in WSW 4.6 mph 4.6 mph 94% 0.00 in 114.0 W/m2
06:46 69.0 °F 66.9 °F 29.76 in WSW 3.5 mph 3.5 mph 93% 0.00 in 125.0 W/m2
06:51 69.3 °F 67.2 °F 29.76 in Calm     93% 0.00 in 139.0 W/m2
06:56 69.7 °F 67.6 °F 29.76 in Calm     93% 0.00 in 160.0 W/m2
07:01 70.0 °F 67.9 °F 29.76 in Calm     93% 0.00 in 90.0 W/m2
07:06 70.3 °F 67.9 °F 29.76 in SSW 1.2 mph 1.2 mph 92% 0.00 in 202.0 W/m2
07:11 70.4 °F 68.0 °F 29.76 in WSW 6.9 mph 6.9 mph 92% 0.00 in 200.0 W/m2
07:16 70.4 °F 67.6 °F 29.76 in WSW 4.0 mph 4.0 mph 91% 0.00 in 144.0 W/m2
07:21 70.5 °F 67.7 °F 29.76 in SW 3.5 mph 3.5 mph 91% 0.00 in 251.0 W/m2
07:26 70.6 °F 67.8 °F 29.76 in West 4.0 mph 4.0 mph 91% 0.00 in 274.0 W/m2
07:31 70.7 °F 67.9 °F 29.76 in WSW 8.1 mph 8.1 mph 91% 0.00 in 181.0 W/m2
07:36 71.0 °F 67.9 °F 29.76 in WSW 5.8 mph 5.8 mph 90% 0.00 in 76.0 W/m2
07:41 71.2 °F 67.8 °F 29.76 in WSW 4.6 mph 4.6 mph 89% 0.00 in 302.0 W/m2
07:46 71.6 °F 68.2 °F 29.77 in WSW 4.6 mph 4.6 mph 89% 0.00 in 302.0 W/m2
07:51 71.8 °F 68.1 °F 29.76 in West 1.2 mph   88% 0.00 in 338.0 W/m2
07:56 72.2 °F 68.4 °F 29.76 in West 1.2 mph 1.2 mph 88% 0.00 in 339.0 W/m2
08:01 72.6 °F 68.5 °F 29.76 in WSW 1.2 mph   87% 0.00 in 341.0 W/m2
08:06 73.0 °F 68.2 °F 29.76 in SW 3.5 mph 3.5 mph 85% 0.00 in 341.0 W/m2
08:11 73.2 °F 67.7 °F 29.76 in WSW 2.0 mph 2.0 mph 83% 0.00 in 330.0 W/m2
08:16 73.7 °F 67.9 °F 29.76 in Calm     82% 0.00 in 336.0 W/m2
08:21 74.1 °F 67.5 °F 29.76 in SW 3.5 mph 3.5 mph 80% 0.00 in 353.0 W/m2
08:26 74.7 °F 68.8 °F 29.76 in SSW 1.2 mph 1.2 mph 82% 0.00 in 345.0 W/m2
08:31 75.0 °F 67.7 °F 29.76 in South 2.3 mph 2.3 mph 78% 0.00 in 334.0 W/m2
08:36 75.2 °F 67.9 °F 29.76 in Calm     78% 0.00 in 364.0 W/m2
08:41 75.9 °F 68.5 °F 29.76 in SSE 3.5 mph 3.5 mph 78% 0.00 in 411.0 W/m2
08:46 76.2 °F 68.1 °F 29.76 in Calm     76% 0.00 in 390.0 W/m2
08:51 76.7 °F 68.6 °F 29.76 in SSW 3.5 mph 3.5 mph 76% 0.00 in 452.0 W/m2
08:56 77.1 °F 68.6 °F 29.76 in SW 5.8 mph 5.8 mph 75% 0.00 in 461.0 W/m2
09:01 77.4 °F 68.5 °F 29.76 in SSW 1.2 mph 1.2 mph 74% 0.00 in 519.0 W/m2
09:06 77.3 °F 68.0 °F 29.76 in Calm     73% 0.00 in 555.0 W/m2
09:11 77.5 °F 68.2 °F 29.76 in Calm     73% 0.00 in 578.0 W/m2
09:16 77.8 °F 67.2 °F 29.76 in Calm     70% 0.00 in 591.0 W/m2
09:21 77.8 °F 66.4 °F 29.76 in Calm     68% 0.00 in 603.0 W/m2
09:26 78.2 °F 68.0 °F 29.76 in Calm     71% 0.00 in 612.0 W/m2
09:31 79.1 °F 69.3 °F 29.76 in South 1.2 mph 1.2 mph 72% 0.00 in 629.0 W/m2
09:36 79.6 °F 69.8 °F 29.76 in Calm     72% 0.00 in 645.0 W/m2
09:41 79.8 °F 68.3 °F 29.76 in Calm     68% 0.00 in 673.0 W/m2
09:46 79.6 °F 68.5 °F 29.77 in NW 1.2 mph   69% 0.00 in 503.0 W/m2
09:48 79.6 °F 69.0 °F 29.77 in Calm     70% 0.00 in 503.0 W/m2
09:53 80.0 °F 69.3 °F 29.77 in Calm     70% 0.00 in 318.0 W/m2
09:58 80.1 °F 68.2 °F 29.77 in Calm     67% 0.00 in 438.0 W/m2
10:03 80.1 °F 68.6 °F 29.77 in Calm     68% 0.00 in 494.0 W/m2
10:08 80.3 °F 69.2 °F 29.77 in SSW 2.0 mph 2.0 mph 69% 0.00 in 733.0 W/m2
10:13 80.7 °F 69.2 °F 29.77 in SSW 3.5 mph 3.5 mph 68% 0.00 in 738.0 W/m2
10:18 80.9 °F 69.3 °F 29.77 in Calm     68% 0.00 in 756.0 W/m2
10:23 81.2 °F 69.6 °F 29.76 in Calm     68% 0.00 in 775.0 W/m2
10:28 82.1 °F 69.6 °F 29.76 in WSW 5.0 mph 5.0 mph 66% 0.00 in 803.0 W/m2
10:33 81.8 °F 68.9 °F 29.76 in WSW 3.5 mph 3.5 mph 65% 0.00 in 805.0 W/m2
10:38 81.8 °F 68.0 °F 29.76 in SW 3.5 mph 3.5 mph 63% 0.00 in 772.0 W/m2
10:43 82.4 °F 68.5 °F 29.76 in SSW 3.5 mph   63% 0.00 in 773.0 W/m2
10:48 82.9 °F 68.1 °F 29.76 in WSW 6.9 mph 6.9 mph 61% 0.00 in 744.0 W/m2
10:53 82.5 °F 69.1 °F 29.76 in Calm     64% 0.00 in 717.0 W/m2
10:58 82.9 °F 68.5 °F 29.76 in Calm     62% 0.00 in 686.0 W/m2
11:03 83.4 °F 69.0 °F 29.76 in West 9.0 mph 9.0 mph 62% 0.00 in 666.0 W/m2
11:08 83.0 °F 68.2 °F 29.76 in West 3.5 mph 3.5 mph 61% 0.00 in 654.0 W/m2
11:13 83.0 °F 68.2 °F 29.76 in WSW 6.9 mph 6.9 mph 61% 0.00 in 661.0 W/m2
11:18 83.8 °F 69.4 °F 29.76 in SW 6.9 mph 6.9 mph 62% 0.00 in 661.0 W/m2
11:23 83.9 °F 68.0 °F 29.76 in SW 6.9 mph 6.9 mph 59% 0.00 in 673.0 W/m2
11:28 84.2 °F 66.8 °F 29.76 in Calm     56% 0.00 in 749.0 W/m2
11:33 84.7 °F 65.7 °F 29.76 in WSW 8.1 mph 8.1 mph 53% 0.00 in 791.0 W/m2
11:38 84.8 °F 66.8 °F 29.76 in Calm     55% 0.00 in 838.0 W/m2
11:43 85.1 °F 66.6 °F 29.76 in SW 5.8 mph 5.8 mph 54% 0.00 in 854.0 W/m2
11:48 85.1 °F 66.0 °F 29.76 in WNW 6.9 mph 6.9 mph 53% 0.00 in 879.0 W/m2
11:53 85.2 °F 66.1 °F 29.76 in WSW 6.9 mph 6.9 mph 53% 0.00 in 882.0 W/m2
11:58 85.1 °F 64.9 °F 29.75 in West 3.5 mph   51% 0.00 in 905.0 W/m2
12:03 85.4 °F 65.2 °F 29.75 in NW 3.5 mph 3.5 mph 51% 0.00 in 905.0 W/m2
12:08 86.0 °F 66.3 °F 29.75 in South 8.1 mph 8.1 mph 52% 0.00 in 921.0 W/m2
12:13 86.1 °F 67.0 °F 29.75 in West 8.1 mph 8.1 mph 53% 0.00 in 925.0 W/m2
12:18 86.6 °F 66.3 °F 29.75 in WSW 8.1 mph 8.1 mph 51% 0.00 in 986.0 W/m2
12:23 86.8 °F 67.6 °F 29.75 in WSW 3.5 mph   53% 0.00 in 965.0 W/m2
12:28 87.2 °F 65.1 °F 29.75 in NW 4.6 mph 4.6 mph 48% 0.00 in 993.0 W/m2
12:33 87.4 °F 65.9 °F 29.75 in NW 6.9 mph 6.9 mph 49% 0.00 in 875.0 W/m2
12:38 87.5 °F 66.6 °F 29.75 in North 3.5 mph 3.5 mph 50% 0.00 in 1046.0 W/m2
12:43 88.1 °F 64.7 °F 29.75 in WSW 6.9 mph 6.9 mph 46% 0.00 in 1030.0 W/m2
12:48 87.7 °F 66.2 °F 29.75 in West 3.0 mph   49% 0.00 in 1099.0 W/m2
12:53 87.4 °F 63.5 °F 29.75 in NNW 4.6 mph 4.6 mph 45% 0.00 in 418.0 W/m2
12:58 87.2 °F 63.3 °F 29.75 in NNW 3.5 mph 3.5 mph 45% 0.00 in 383.0 W/m2
13:03 87.1 °F 65.6 °F 29.75 in Calm     49% 0.00 in 976.0 W/m2
13:08 87.1 °F 64.4 °F 29.75 in NNW 1.0 mph 1.0 mph 47% 0.00 in 997.0 W/m2
13:13 87.3 °F 64.6 °F 29.75 in NNW 3.0 mph 3.0 mph 47% 0.00 in 976.0 W/m2
13:18 87.9 °F 63.9 °F 29.75 in WSW 4.0 mph 4.0 mph 45% 0.00 in 1049.0 W/m2
13:23 87.9 °F 63.9 °F 29.74 in WSW 7.0 mph 7.0 mph 45% 0.00 in 969.0 W/m2
13:28 88.0 °F 63.4 °F 29.74 in SSW 8.1 mph 8.1 mph 44% 0.00 in 954.0 W/m2
13:33 88.2 °F 64.2 °F 29.74 in SW 5.8 mph 5.8 mph 45% 0.00 in 969.0 W/m2
13:38 88.5 °F 63.8 °F 29.74 in Calm     44% 0.00 in 279.0 W/m2
13:43 88.6 °F 63.2 °F 29.74 in Calm     43% 0.00 in 974.0 W/m2
13:48 88.8 °F 62.7 °F 29.74 in WNW 4.6 mph   42% 0.00 in 960.0 W/m2
13:53 88.9 °F 63.5 °F 29.74 in West 3.5 mph 3.5 mph 43% 0.00 in 954.0 W/m2
13:58 89.0 °F 62.9 °F 29.74 in NNW 6.9 mph 6.9 mph 42% 0.00 in 919.0 W/m2
14:03 89.4 °F 64.0 °F 29.74 in NNW 6.0 mph 6.0 mph 43% 0.00 in 953.0 W/m2
14:08 89.4 °F 62.6 °F 29.74 in NW 5.8 mph   41% 0.00 in 940.0 W/m2
14:13 89.3 °F 63.2 °F 29.74 in WNW 6.0 mph 6.0 mph 42% 0.00 in 909.0 W/m2
14:18 89.3 °F 64.5 °F 29.73 in West 4.6 mph 4.6 mph 44% 0.00 in 895.0 W/m2
14:23 89.4 °F 63.3 °F 29.73 in NW 5.8 mph 5.8 mph 42% 0.00 in 889.0 W/m2
14:28 89.7 °F 63.6 °F 29.73 in NW 5.8 mph 5.8 mph 42% 0.00 in 900.0 W/m2
14:33 89.4 °F 64.6 °F 29.73 in WNW 5.8 mph 5.8 mph 44% 0.00 in 914.0 W/m2
14:38 89.5 °F 64.0 °F 29.73 in WSW 3.5 mph 3.5 mph 43% 0.00 in 937.0 W/m2
14:43 89.6 °F 65.4 °F 29.73 in NNW 3.5 mph 3.5 mph 45% 0.00 in 932.0 W/m2
14:48 89.9 °F 64.4 °F 29.73 in NNW 4.0 mph 4.0 mph 43% 0.00 in 928.0 W/m2
14:53 90.1 °F 64.6 °F 29.72 in NW 6.9 mph 6.9 mph 43% 0.00 in 900.0 W/m2
14:58 90.4 °F 65.5 °F 29.72 in NW 3.5 mph   44% 0.00 in 895.0 W/m2
15:03 90.0 °F 63.8 °F 29.72 in WSW 6.9 mph 6.9 mph 42% 0.00 in 113.0 W/m2
15:08 89.0 °F 64.3 °F 29.72 in West 3.5 mph 3.5 mph 44% 0.00 in 162.0 W/m2
15:13 88.8 °F 64.7 °F 29.72 in NNW 4.6 mph 4.6 mph 45% 0.00 in 814.0 W/m2
15:19 89.2 °F 65.7 °F 29.71 in NW 3.5 mph 3.5 mph 46% 0.00 in 826.0 W/m2
15:24 89.3 °F 65.2 °F 29.72 in West 10.4 mph 10.4 mph 45% 0.00 in 141.0 W/m2
15:29 89.0 °F 66.2 °F 29.72 in SW 6.0 mph 6.0 mph 47% 0.00 in 782.0 W/m2
15:34 89.8 °F 65.6 °F 29.71 in SW 10.4 mph 10.4 mph 45% 0.00 in 782.0 W/m2
15:39 90.4 °F 64.9 °F 29.71 in North 5.0 mph 5.0 mph 43% 0.00 in 744.0 W/m2
15:44 90.5 °F 65.6 °F 29.71 in WNW 10.4 mph 10.4 mph 44% 0.00 in 737.0 W/m2
15:49 90.5 °F 64.9 °F 29.72 in WNW 6.9 mph 6.9 mph 43% 0.00 in 731.0 W/m2
15:54 90.5 °F 64.9 °F 29.71 in WNW 4.6 mph 4.6 mph 43% 0.00 in 710.0 W/m2
15:59 91.0 °F 66.7 °F 29.71 in WNW 7.0 mph 7.0 mph 45% 0.00 in 698.0 W/m2
16:04 91.1 °F 66.8 °F 29.71 in NW 5.8 mph 5.8 mph 45% 0.00 in 696.0 W/m2
16:09 91.2 °F 65.6 °F 29.71 in WSW 9.2 mph 9.2 mph 43% 0.00 in 195.0 W/m2
16:14 90.4 °F 65.5 °F 29.71 in WSW 5.8 mph 5.8 mph 44% 0.00 in 703.0 W/m2
16:19 90.8 °F 67.2 °F 29.71 in WNW 8.1 mph 8.1 mph 46% 0.00 in 698.0 W/m2
16:24 90.9 °F 67.3 °F 29.71 in NW 8.1 mph 8.1 mph 46% 0.00 in 694.0 W/m2
16:29 90.8 °F 65.9 °F 29.71 in NW 6.9 mph 6.9 mph 44% 0.00 in 111.0 W/m2
16:34 90.4 °F 65.5 °F 29.71 in West 9.2 mph 9.2 mph 44% 0.00 in 626.0 W/m2
16:39 90.6 °F 65.0 °F 29.71 in NW 11.5 mph 11.5 mph 43% 0.00 in 610.0 W/m2
16:44 90.7 °F 65.8 °F 29.71 in NNW 8.1 mph 8.1 mph 44% 0.00 in 573.0 W/m2
16:49 90.8 °F 65.2 °F 29.71 in SSW 6.9 mph 6.9 mph 43% 0.00 in 550.0 W/m2
16:54 90.9 °F 66.0 °F 29.71 in WNW 3.5 mph 3.5 mph 44% 0.00 in 534.0 W/m2
16:59 91.0 °F 64.7 °F 29.71 in West 4.6 mph 4.6 mph 42% 0.00 in 517.0 W/m2
17:04 90.9 °F 63.9 °F 29.70 in WNW 10.4 mph 10.4 mph 41% 0.00 in 503.0 W/m2
17:09 90.5 °F 63.6 °F 29.70 in WNW 6.9 mph 6.9 mph 41% 0.00 in 483.0 W/m2
17:14 90.4 °F 64.9 °F 29.70 in WSW 8.1 mph 8.1 mph 43% 0.00 in 466.0 W/m2
17:19 90.6 °F 64.4 °F 29.70 in WNW 4.6 mph 4.6 mph 42% 0.00 in 452.0 W/m2
17:24 90.7 °F 63.8 °F 29.70 in NNW 4.6 mph 4.6 mph 41% 0.00 in 439.0 W/m2
17:29 90.8 °F 64.5 °F 29.70 in NW 8.1 mph 8.1 mph 42% 0.00 in 425.0 W/m2
17:34 90.6 °F 64.4 °F 29.70 in WNW 10.4 mph 10.4 mph 42% 0.00 in 410.0 W/m2
17:39 90.4 °F 63.5 °F 29.70 in WNW 5.8 mph 5.8 mph 41% 0.00 in 392.0 W/m2
17:44 90.4 °F 63.5 °F 29.70 in WNW 5.8 mph 5.8 mph 41% 0.00 in 376.0 W/m2
17:49 90.5 °F 63.6 °F 29.70 in West 5.8 mph 5.8 mph 41% 0.00 in 360.0 W/m2
17:54 90.7 °F 64.5 °F 29.70 in West 1.2 mph 1.2 mph 42% 0.00 in 345.0 W/m2
17:59 90.6 °F 64.4 °F 29.70 in NW 4.0 mph 4.0 mph 42% 0.00 in 334.0 W/m2
18:04 90.5 °F 63.6 °F 29.70 in WNW 5.8 mph 5.8 mph 41% 0.00 in 318.0 W/m2
18:09 90.4 °F 63.5 °F 29.70 in WNW 5.0 mph 5.0 mph 41% 0.00 in 301.0 W/m2
18:14 90.3 °F 63.4 °F 29.70 in NW 6.0 mph 6.0 mph 41% 0.00 in 283.0 W/m2
18:19 90.3 °F 63.4 °F 29.70 in WNW 5.0 mph 5.0 mph 41% 0.00 in 281.0 W/m2
18:24 90.0 °F 63.8 °F 29.70 in Calm     42% 0.00 in 255.0 W/m2
18:29 90.1 °F 63.9 °F 29.70 in Calm     42% 0.00 in 241.0 W/m2
18:34 90.1 °F 65.2 °F 29.70 in Calm     44% 0.00 in 241.0 W/m2
18:39 90.4 °F 64.2 °F 29.70 in NW 8.1 mph 8.1 mph 42% 0.00 in 209.0 W/m2
18:44 90.4 °F 64.2 °F 29.70 in WNW 8.1 mph 8.1 mph 42% 0.00 in 204.0 W/m2
18:49 89.7 °F 64.2 °F 29.70 in WNW 3.5 mph 3.5 mph 43% 0.00 in 167.0 W/m2
18:54 89.4 °F 64.0 °F 29.71 in WNW 6.9 mph 6.9 mph 43% 0.00 in 148.0 W/m2
18:59 89.2 °F 63.1 °F 29.71 in West 2.3 mph 2.3 mph 42% 0.00 in 125.0 W/m2
19:04 88.9 °F 63.5 °F 29.71 in WNW 2.3 mph 2.3 mph 43% 0.00 in 107.0 W/m2
19:09 88.6 °F 63.9 °F 29.71 in NW 4.6 mph 4.6 mph 44% 0.00 in 33.0 W/m2
19:14 88.1 °F 64.1 °F 29.72 in Calm     45% 0.00 in 25.0 W/m2
19:19 87.5 °F 64.2 °F 29.71 in SSW 5.8 mph 5.8 mph 46% 0.00 in 23.0 W/m2
19:24 87.0 °F 63.7 °F 29.71 in WNW 1.2 mph 1.2 mph 46% 0.00 in 23.0 W/m2
19:29 86.8 °F 63.5 °F 29.72 in Calm     46% 0.00 in 23.0 W/m2
19:34 86.5 °F 63.9 °F 29.72 in Calm     47% 0.00 in 23.0 W/m2
19:39 86.2 °F 63.6 °F 29.72 in Calm     47% 0.00 in 21.0 W/m2
19:44 85.9 °F 63.3 °F 29.72 in Calm     47% 0.00 in 18.0 W/m2
19:49 85.6 °F 63.7 °F 29.72 in Calm     48% 0.00 in 18.0 W/m2
19:54 85.4 °F 63.5 °F 29.72 in Calm     48% 0.00 in 14.0 W/m2
19:59 85.1 °F 63.8 °F 29.72 in Calm     49% 0.00 in 9.0 W/m2
20:04 84.8 °F 63.5 °F 29.72 in Calm     49% 0.00 in 7.0 W/m2
20:09 84.3 °F 64.2 °F 29.72 in Calm     51% 0.00 in 5.0 W/m2
20:14 83.8 °F 64.3 °F 29.72 in Calm     52% 0.00 in 0.0 W/m2
20:19 83.7 °F 64.2 °F 29.72 in Calm     52% 0.00 in 0.0 W/m2
20:24 82.9 °F 64.5 °F 29.72 in Calm     54% 0.00 in 0.0 W/m2
20:29 81.5 °F 63.8 °F 29.72 in Calm     55% 0.00 in 0.0 W/m2
20:34 80.6 °F 63.5 °F 29.72 in Calm     56% 0.00 in 0.0 W/m2
20:39 80.3 °F 63.7 °F 29.73 in Calm     57% 0.00 in 0.0 W/m2
20:44 79.7 °F 64.1 °F 29.73 in Calm     59% 0.00 in 0.0 W/m2
20:49 79.7 °F 63.6 °F 29.73 in Calm     58% 0.00 in 0.0 W/m2
20:54 79.5 °F 63.9 °F 29.73 in Calm     59% 0.00 in 0.0 W/m2
20:59 79.0 °F 64.4 °F 29.74 in Calm     61% 0.00 in 0.0 W/m2
21:04 78.0 °F 63.5 °F 29.74 in Calm     61% 0.00 in 0.0 W/m2
21:09 77.7 °F 63.2 °F 29.74 in Calm     61% 0.00 in 0.0 W/m2
21:14 77.6 °F 63.1 °F 29.74 in Calm     61% 0.00 in 0.0 W/m2
21:19 77.4 °F 62.9 °F 29.75 in Calm     61% 0.00 in 0.0 W/m2
21:24 76.9 °F 62.9 °F 29.75 in Calm     62% 0.00 in 0.0 W/m2
21:29 76.7 °F 63.2 °F 29.75 in Calm     63% 0.00 in 0.0 W/m2
21:34 76.7 °F 63.2 °F 29.76 in Calm     63% 0.00 in 0.0 W/m2
21:39 76.7 °F 63.2 °F 29.76 in Calm     63% 0.00 in 0.0 W/m2
21:44 76.9 °F 63.3 °F 29.76 in Calm     63% 0.00 in 0.0 W/m2
21:49 77.2 °F 63.6 °F 29.76 in Calm     63% 0.00 in 0.0 W/m2
21:54 77.9 °F 64.3 °F 29.77 in Calm     63% 0.00 in 0.0 W/m2
21:59 78.5 °F 63.9 °F 29.77 in WSW 2.3 mph   61% 0.00 in 0.0 W/m2
22:04 79.5 °F 64.4 °F 29.77 in WSW 2.3 mph 2.3 mph 60% 0.00 in 0.0 W/m2
22:09 79.7 °F 64.6 °F 29.77 in WSW 2.3 mph 2.3 mph 60% 0.00 in 0.0 W/m2
22:14 80.2 °F 64.1 °F 29.78 in WSW 2.3 mph 2.3 mph 58% 0.00 in 0.0 W/m2
22:19 80.2 °F 64.1 °F 29.77 in Calm     58% 0.00 in 0.0 W/m2
22:24 79.8 °F 65.2 °F 29.77 in Calm     61% 0.00 in 0.0 W/m2
22:29 79.0 °F 64.4 °F 29.78 in Calm     61% 0.00 in 0.0 W/m2
22:34 78.1 °F 64.5 °F 29.77 in Calm     63% 0.00 in 0.0 W/m2
22:39 77.8 °F 64.2 °F 29.77 in Calm     63% 0.00 in 0.0 W/m2
22:44 76.9 °F 64.2 °F 29.77 in Calm     65% 0.00 in 0.0 W/m2
22:49 76.1 °F 64.3 °F 29.77 in Calm     67% 0.00 in 0.0 W/m2
22:54 75.9 °F 64.2 °F 29.77 in Calm     67% 0.00 in 0.0 W/m2
22:59 75.3 °F 64.4 °F 29.77 in Calm     69% 0.00 in 0.0 W/m2
23:04 74.8 °F 63.5 °F 29.77 in Calm     68% 0.00 in 0.0 W/m2
23:09 74.7 °F 63.4 °F 29.77 in Calm     68% 0.00 in 0.0 W/m2
23:14 74.4 °F 64.0 °F 29.77 in Calm     70% 0.00 in 0.0 W/m2
23:19 74.4 °F 64.0 °F 29.78 in Calm     70% 0.00 in 0.0 W/m2
23:24 74.2 °F 63.8 °F 29.78 in Calm     70% 0.00 in 0.0 W/m2
23:29 73.9 °F 63.9 °F 29.78 in Calm     71% 0.00 in 0.0 W/m2
23:34 73.7 °F 63.7 °F 29.78 in Calm     71% 0.00 in 0.0 W/m2
23:39 73.3 °F 63.7 °F 29.78 in Calm     72% 0.00 in 0.0 W/m2
23:44 72.9 °F 63.7 °F 29.78 in Calm     73% 0.00 in 0.0 W/m2
23:49 72.6 °F 63.8 °F 29.78 in Calm     74% 0.00 in 0.0 W/m2
23:54 72.5 °F 63.7 °F 29.78 in Calm     74% 0.00 in 0.0 W/m2
23:59 72.4 °F 63.6 °F 29.78 in Calm     74% 0.00 in 0.0 W/m2
Bourbonnais, Illinois, USA
Compliments of Weather Underground - 4 mb